Time;durP1;ratioP1;P1;durP2;ratioP2;P2;SDS_P1;SDS_P2;PMS_P1;PMS_P2;Temp;Humidity;BMP_temperature;BMP_pressure;BME280_temperature;BME280_humidity;BME280_pressure;Samples;Min_cycle;Max_cycle;Signal;HPM_P1;HPM_P2
2021/06/27 00:00:25;;;;;;;8.77;7.88;;;24.20;99.90;;;;;;4882895;29;20047;-84
2021/06/27 00:02:51;;;;;;;7.95;7.15;;;24.20;99.90;;;;;;4899690;29;20024;-84
2021/06/27 00:05:20;;;;;;;8.85;8.02;;;24.20;99.90;;;;;;4898755;29;20518;-85
2021/06/27 00:07:46;;;;;;;8.10;7.30;;;24.20;99.90;;;;;;4898348;29;20036;-84
2021/06/27 00:10:15;;;;;;;8.48;7.57;;;24.20;99.90;;;;;;4883006;29;20482;-84
2021/06/27 00:12:42;;;;;;;8.73;7.47;;;24.20;99.90;;;;;;4898187;29;20559;-85
2021/06/27 00:15:13;;;;;;;9.18;7.65;;;24.20;99.90;;;;;;4882930;29;20752;-84
2021/06/27 00:17:39;;;;;;;10.07;8.00;;;24.20;99.90;;;;;;4898415;29;20029;-85
2021/06/27 00:20:11;;;;;;;8.57;7.68;;;24.20;99.90;;;;;;4898337;29;20047;-84
2021/06/27 00:22:37;;;;;;;8.88;7.65;;;24.20;99.90;;;;;;4898201;29;20115;-85
2021/06/27 00:25:06;;;;;;;8.20;7.40;;;24.20;99.90;;;;;;4882875;29;20459;-85
2021/06/27 00:27:31;;;;;;;9.65;7.80;;;24.20;99.90;;;;;;4897688;29;20047;-87
2021/06/27 00:29:57;;;;;;;9.00;7.40;;;24.20;99.90;;;;;;4898422;29;20032;-85
2021/06/27 00:32:23;;;;;;;8.93;7.75;;;24.20;99.90;;;;;;4898308;29;20036;-84
2021/06/27 00:34:48;;;;;;;7.45;6.75;;;24.20;99.90;;;;;;4882531;29;20044;-84
2021/06/27 00:37:14;;;;;;;6.90;6.20;;;24.20;99.90;;;;;;4898423;29;20059;-84
2021/06/27 00:39:39;;;;;;;7.18;6.45;;;24.20;99.90;;;;;;4882115;29;20076;-84
2021/06/27 00:42:05;;;;;;;7.28;6.55;;;24.20;99.90;;;;;;4898068;29;20127;-84
2021/06/27 00:44:31;;;;;;;8.27;7.22;;;24.20;99.90;;;;;;4897663;29;20078;-83
2021/06/27 00:46:57;;;;;;;8.30;7.28;;;24.20;99.90;;;;;;4899314;29;20542;-83
2021/06/27 00:49:22;;;;;;;7.97;7.20;;;24.10;99.90;;;;;;4898510;29;20487;-84
2021/06/27 00:51:48;;;;;;;7.30;6.47;;;24.20;99.90;;;;;;4882222;29;20391;-84
2021/06/27 00:54:15;;;;;;;7.50;6.65;;;24.10;99.90;;;;;;4898178;29;20069;-84
2021/06/27 00:56:44;;;;;;;8.60;7.35;;;24.10;99.90;;;;;;4897821;29;20024;-83
2021/06/27 00:59:10;;;;;;;8.65;7.75;;;24.10;99.90;;;;;;4898253;29;20049;-83
2021/06/27 01:01:35;;;;;;;7.32;6.65;;;24.20;99.90;;;;;;4882307;29;20107;-85
2021/06/27 01:04:01;;;;;;;8.25;7.30;;;24.10;99.90;;;;;;4881981;29;20403;-84
2021/06/27 01:06:26;;;;;;;7.68;6.88;;;24.10;99.90;;;;;;4881913;29;20132;-84
2021/06/27 01:08:52;;;;;;;7.95;7.05;;;24.10;99.90;;;;;;4881539;29;20131;-84
2021/06/27 01:11:18;;;;;;;7.63;6.93;;;24.10;99.90;;;;;;4897371;29;20033;-84
2021/06/27 01:13:44;;;;;;;7.72;6.90;;;24.10;99.90;;;;;;4897128;29;20037;-84
2021/06/27 01:16:09;;;;;;;7.65;6.82;;;24.10;99.90;;;;;;4881969;29;20039;-84
2021/06/27 01:18:35;;;;;;;8.30;7.47;;;24.10;99.90;;;;;;4897276;29;20045;-84
2021/06/27 01:21:05;;;;;;;8.60;7.00;;;24.10;99.90;;;;;;4881501;29;20411;-84
2021/06/27 01:23:31;;;;;;;9.20;8.10;;;24.10;99.90;;;;;;4898509;29;20024;-84
2021/06/27 01:25:57;;;;;;;9.10;7.68;;;24.10;99.90;;;;;;4881350;29;20032;-83
2021/06/27 01:28:22;;;;;;;8.63;7.60;;;24.10;99.90;;;;;;4897070;29;20043;-83
2021/06/27 01:30:49;;;;;;;7.72;6.75;;;24.10;99.90;;;;;;4896990;29;20037;-83
2021/06/27 01:33:17;;;;;;;8.57;7.53;;;24.10;99.90;;;;;;4897221;29;20029;-84
2021/06/27 01:35:44;;;;;;;8.75;7.25;;;24.10;99.90;;;;;;4898821;29;20067;-83
2021/06/27 01:38:15;;;;;;;7.90;7.07;;;24.10;99.90;;;;;;4897406;29;20041;-84
2021/06/27 01:40:41;;;;;;;8.20;7.25;;;24.10;99.90;;;;;;4897496;29;20025;-83
2021/06/27 01:43:07;;;;;;;7.45;6.70;;;24.10;99.90;;;;;;4897899;29;20058;-83
2021/06/27 01:45:32;;;;;;;7.57;6.80;;;24.10;99.90;;;;;;4897693;29;20475;-83
2021/06/27 01:48:01;;;;;;;8.15;7.35;;;24.10;99.90;;;;;;4882199;29;20035;-84
2021/06/27 01:50:27;;;;;;;8.23;7.00;;;24.10;99.90;;;;;;4897252;29;20432;-83
2021/06/27 01:52:55;;;;;;;8.50;7.55;;;24.10;99.90;;;;;;4896710;29;20036;-83
2021/06/27 01:55:21;;;;;;;8.82;7.35;;;24.10;99.90;;;;;;4881742;29;20029;-84
2021/06/27 01:57:47;;;;;;;8.05;7.00;;;24.10;99.90;;;;;;4881272;29;20059;-84
2021/06/27 02:00:13;;;;;;;8.93;7.65;;;24.10;99.90;;;;;;4898077;29;20497;-84
2021/06/27 02:02:38;;;;;;;9.25;7.20;;;24.10;99.90;;;;;;4897085;29;20068;-84
2021/06/27 02:05:06;;;;;;;7.43;6.47;;;24.10;99.90;;;;;;4896608;29;20112;-84
2021/06/27 02:07:31;;;;;;;7.72;6.93;;;24.10;99.90;;;;;;4896502;29;20033;-84
2021/06/27 02:09:57;;;;;;;7.55;6.78;;;24.10;99.90;;;;;;4881199;29;20375;-84
2021/06/27 02:12:23;;;;;;;7.97;6.47;;;24.10;99.90;;;;;;4896777;29;20372;-84
2021/06/27 02:14:49;;;;;;;8.13;7.20;;;24.10;99.90;;;;;;4881058;29;20049;-85
2021/06/27 02:17:15;;;;;;;10.00;7.88;;;24.10;99.90;;;;;;4896824;29;20033;-84
2021/06/27 02:19:40;;;;;;;8.07;7.28;;;24.10;99.90;;;;;;4896563;29;20044;-84
2021/06/27 02:22:06;;;;;;;8.73;7.60;;;24.10;99.90;;;;;;4880531;29;20515;-84
2021/06/27 02:24:33;;;;;;;7.95;7.03;;;24.10;99.90;;;;;;4881230;29;20084;-84
2021/06/27 02:26:59;;;;;;;8.15;6.72;;;24.10;99.90;;;;;;4896137;29;20029;-83
2021/06/27 02:29:26;;;;;;;8.60;7.10;;;24.10;99.90;;;;;;4896699;29;20047;-83
2021/06/27 02:31:52;;;;;;;8.27;7.47;;;24.10;99.90;;;;;;4897416;29;20028;-85
2021/06/27 02:34:20;;;;;;;8.00;6.95;;;24.10;99.90;;;;;;4896398;29;20088;-84
2021/06/27 02:36:47;;;;;;;7.28;6.50;;;24.10;99.90;;;;;;4897445;29;20029;-84
2021/06/27 02:39:13;;;;;;;8.30;7.05;;;24.10;99.90;;;;;;4897337;29;20127;-84
2021/06/27 02:41:39;;;;;;;8.65;7.18;;;24.10;99.90;;;;;;4896496;29;20379;-84
2021/06/27 02:44:05;;;;;;;9.32;6.95;;;24.10;99.90;;;;;;4897588;29;20064;-83
2021/06/27 02:46:31;;;;;;;7.65;6.78;;;24.10;99.90;;;;;;4896447;29;20072;-83
2021/06/27 02:48:58;;;;;;;8.60;7.50;;;24.10;99.90;;;;;;4897525;29;20037;-83
2021/06/27 02:51:24;;;;;;;9.45;7.80;;;24.10;99.90;;;;;;4897598;29;20020;-83
2021/06/27 02:53:50;;;;;;;8.43;7.53;;;24.10;99.90;;;;;;4896252;29;20032;-83
2021/06/27 02:56:16;;;;;;;8.95;7.82;;;24.10;99.90;;;;;;4897449;29;20036;-83
2021/06/27 02:58:46;;;;;;;8.77;7.47;;;24.10;99.90;;;;;;4880735;29;20107;-84
2021/06/27 03:01:12;;;;;;;7.75;6.97;;;24.10;99.90;;;;;;4898609;29;20064;-83
2021/06/27 03:03:40;;;;;;;7.32;6.63;;;24.10;99.90;;;;;;4899584;29;20037;-83
2021/06/27 03:06:07;;;;;;;7.30;6.60;;;24.10;99.90;;;;;;4899389;29;20093;-83
2021/06/27 03:08:33;;;;;;;7.65;6.85;;;24.10;99.90;;;;;;4899800;29;20120;-83
2021/06/27 03:10:59;;;;;;;7.85;6.70;;;24.10;99.90;;;;;;4899515;29;20066;-83
2021/06/27 03:13:25;;;;;;;9.82;7.57;;;24.10;99.90;;;;;;4884030;29;20060;-83
2021/06/27 03:15:51;;;;;;;7.70;6.88;;;24.10;99.90;;;;;;4899125;29;20028;-84
2021/06/27 03:18:17;;;;;;;7.78;6.97;;;24.10;99.90;;;;;;4900496;29;20040;-83
2021/06/27 03:20:43;;;;;;;7.07;6.38;;;24.10;99.90;;;;;;4899697;29;20415;-84
2021/06/27 03:23:09;;;;;;;8.70;7.43;;;24.10;99.90;;;;;;4899362;29;20028;-84
2021/06/27 03:25:35;;;;;;;8.52;7.47;;;24.10;99.90;;;;;;4899393;29;20034;-84
2021/06/27 03:28:02;;;;;;;8.95;7.13;;;24.10;99.90;;;;;;4899251;29;20032;-84
2021/06/27 03:30:28;;;;;;;7.88;7.03;;;24.10;99.90;;;;;;4899316;29;20040;-84
2021/06/27 03:32:54;;;;;;;7.95;6.65;;;24.10;99.90;;;;;;4883554;29;20037;-84
2021/06/27 03:35:19;;;;;;;7.78;6.97;;;24.10;99.90;;;;;;4899398;29;20032;-84
2021/06/27 03:38:14;;;;;;;7.70;6.82;;;24.10;99.90;;;;;;4883670;29;20398;-84
2021/06/27 03:40:31;;;;;;;7.78;6.97;;;24.10;99.90;;;;;;4898974;29;20124;-84
2021/06/27 03:43:00;;;;;;;9.18;7.78;;;24.10;99.90;;;;;;4899913;29;20135;-84
2021/06/27 03:45:26;;;;;;;9.75;8.32;;;24.10;99.90;;;;;;4899235;29;20048;-84
2021/06/27 03:47:52;;;;;;;7.90;7.10;;;24.00;99.90;;;;;;4883414;29;20040;-87
2021/06/27 03:50:19;;;;;;;8.73;7.78;;;24.00;99.90;;;;;;4897095;29;20394;-84
2021/06/27 03:52:45;;;;;;;8.32;7.45;;;24.00;99.90;;;;;;4898917;29;20135;-83
2021/06/27 03:55:12;;;;;;;8.80;7.90;;;24.00;99.90;;;;;;4898428;29;20137;-84
2021/06/27 03:57:38;;;;;;;8.93;8.02;;;24.00;99.90;;;;;;4898762;29;20124;-84
2021/06/27 04:00:06;;;;;;;8.68;7.78;;;24.00;99.90;;;;;;4899826;29;20153;-84
2021/06/27 04:02:32;;;;;;;8.73;7.80;;;24.00;99.90;;;;;;4898870;29;20063;-84
2021/06/27 04:04:57;;;;;;;9.40;8.43;;;24.00;99.90;;;;;;4882918;29;20060;-84
2021/06/27 04:07:23;;;;;;;8.80;7.90;;;24.00;99.90;;;;;;4883112;29;20112;-84
2021/06/27 04:09:49;;;;;;;8.48;7.55;;;24.00;99.90;;;;;;4899110;29;20111;-84
2021/06/27 04:12:14;;;;;;;9.63;8.32;;;24.00;99.90;;;;;;4898149;29;20032;-84
2021/06/27 04:14:40;;;;;;;9.00;8.07;;;24.00;99.90;;;;;;4898565;29;20161;-84
2021/06/27 04:17:06;;;;;;;9.75;8.15;;;24.00;99.90;;;;;;4898480;29;20137;-84
2021/06/27 04:19:31;;;;;;;9.27;8.18;;;24.00;99.90;;;;;;4882981;29;20053;-84
2021/06/27 04:21:57;;;;;;;7.82;7.03;;;24.00;99.90;;;;;;4898240;29;20048;-84
2021/06/27 04:24:23;;;;;;;8.52;7.63;;;24.00;99.90;;;;;;4883026;29;20029;-84
2021/06/27 04:26:49;;;;;;;8.35;7.55;;;24.00;99.90;;;;;;4882836;29;20372;-84
2021/06/27 04:29:16;;;;;;;9.50;7.90;;;24.00;99.90;;;;;;4882310;29;20482;-84
2021/06/27 04:31:43;;;;;;;7.97;7.18;;;24.00;99.90;;;;;;4883142;29;20064;-84
2021/06/27 04:34:10;;;;;;;9.07;7.53;;;24.00;99.90;;;;;;4899439;29;20037;-84
2021/06/27 04:36:36;;;;;;;7.70;6.90;;;24.00;99.90;;;;;;4883024;29;20035;-84
2021/06/27 04:39:02;;;;;;;8.60;7.22;;;24.00;99.90;;;;;;4898217;29;20399;-84
2021/06/27 04:41:27;;;;;;;8.15;7.35;;;24.00;99.90;;;;;;4897921;29;20033;-84
2021/06/27 04:43:53;;;;;;;8.32;7.43;;;24.00;99.90;;;;;;4897787;29;20367;-84
2021/06/27 04:46:19;;;;;;;7.68;6.90;;;24.00;99.90;;;;;;4882128;29;20551;-84
2021/06/27 04:48:45;;;;;;;7.35;6.63;;;24.10;99.90;;;;;;4899164;29;20095;-83
2021/06/27 04:51:10;;;;;;;8.60;7.40;;;24.10;99.90;;;;;;4882185;29;20036;-84
2021/06/27 04:53:36;;;;;;;6.88;6.18;;;24.10;99.90;;;;;;4898056;29;20041;-84
2021/06/27 04:56:02;;;;;;;7.40;6.60;;;24.10;99.90;;;;;;4898480;29;20191;-84
2021/06/27 04:58:27;;;;;;;7.05;6.35;;;24.10;99.90;;;;;;4885304;29;20555;-84
2021/06/27 05:00:54;;;;;;;7.78;6.47;;;24.10;99.90;;;;;;4903901;29;20080;-84
2021/06/27 05:03:19;;;;;;;7.07;6.13;;;24.10;99.90;;;;;;4902831;29;20108;-84
2021/06/27 05:05:45;;;;;;;7.07;6.38;;;24.10;99.90;;;;;;4902631;29;20033;-83
2021/06/27 05:08:11;;;;;;;6.47;5.85;;;24.10;99.90;;;;;;4881868;29;20033;-83
2021/06/27 05:10:36;;;;;;;7.00;6.30;;;24.20;99.90;;;;;;4898626;29;20037;-84
2021/06/27 05:13:02;;;;;;;8.25;6.32;;;24.10;99.90;;;;;;4881254;29;20044;-85
2021/06/27 05:15:28;;;;;;;6.90;6.20;;;24.20;99.90;;;;;;4897199;29;20040;-84
2021/06/27 05:17:54;;;;;;;6.85;6.15;;;24.20;99.90;;;;;;4881900;29;20033;-84
2021/06/27 05:20:19;;;;;;;7.18;6.47;;;24.20;99.90;;;;;;4897212;29;20039;-84
2021/06/27 05:22:45;;;;;;;7.38;6.07;;;24.20;99.90;;;;;;4881244;29;20039;-83
2021/06/27 05:25:11;;;;;;;7.30;6.57;;;24.20;99.90;;;;;;4897092;29;20029;-84
2021/06/27 05:27:37;;;;;;;7.53;6.53;;;24.20;99.90;;;;;;4897167;29;20036;-84
2021/06/27 05:30:05;;;;;;;7.18;6.15;;;24.20;99.90;;;;;;4896797;29;20036;-84
2021/06/27 05:32:31;;;;;;;7.00;6.30;;;24.20;99.90;;;;;;4897047;29;20069;-84
2021/06/27 05:34:56;;;;;;;7.25;6.55;;;24.20;99.90;;;;;;4897274;29;20071;-84
2021/06/27 05:37:22;;;;;;;7.45;6.75;;;24.20;99.90;;;;;;4896636;29;20032;-84
2021/06/27 05:39:48;;;;;;;6.10;5.50;;;24.20;99.90;;;;;;4897000;29;20045;-84
2021/06/27 05:42:14;;;;;;;7.38;6.68;;;24.20;99.90;;;;;;4881026;29;20390;-84
2021/06/27 05:44:39;;;;;;;6.95;6.18;;;24.20;99.90;;;;;;4896952;29;20052;-84
2021/06/27 05:47:05;;;;;;;6.43;5.78;;;24.20;99.90;;;;;;4896565;29;20029;-85
2021/06/27 05:49:31;;;;;;;5.97;5.38;;;24.20;99.90;;;;;;4881306;29;20040;-84
2021/06/27 05:51:57;;;;;;;6.18;5.55;;;24.20;99.90;;;;;;4881371;29;20127;-84
2021/06/27 05:54:22;;;;;;;6.15;5.55;;;24.20;99.90;;;;;;4896193;29;20036;-84
2021/06/27 05:56:48;;;;;;;6.22;5.38;;;24.20;99.90;;;;;;4881050;29;20081;-85
2021/06/27 05:59:14;;;;;;;6.18;5.57;;;24.20;99.90;;;;;;4896822;29;20150;-84
2021/06/27 06:01:39;;;;;;;6.65;5.50;;;24.20;99.90;;;;;;4896801;29;20057;-84
2021/06/27 06:04:05;;;;;;;6.13;5.53;;;24.20;99.90;;;;;;4881034;29;20025;-85
2021/06/27 06:06:31;;;;;;;5.70;5.10;;;24.30;99.90;;;;;;4896596;29;20559;-84
2021/06/27 06:08:57;;;;;;;5.43;4.93;;;24.30;99.90;;;;;;4897828;29;20100;-84
2021/06/27 06:11:25;;;;;;;5.88;5.25;;;24.30;99.90;;;;;;4880628;29;20029;-85
2021/06/27 06:13:51;;;;;;;5.80;5.20;;;24.30;99.90;;;;;;4896867;29;20060;-85
2021/06/27 06:16:16;;;;;;;5.88;5.25;;;24.30;99.90;;;;;;4896623;29;20067;-85
2021/06/27 06:18:44;;;;;;;5.95;5.40;;;24.30;99.90;;;;;;4896837;29;20040;-84
2021/06/27 06:21:11;;;;;;;5.75;5.13;;;24.30;99.90;;;;;;4896437;29;20127;-85
2021/06/27 06:23:37;;;;;;;7.60;5.60;;;24.30;99.90;;;;;;4897637;29;20028;-84
2021/06/27 06:26:03;;;;;;;5.80;5.20;;;24.30;99.90;;;;;;4897705;29;20032;-84
2021/06/27 06:28:29;;;;;;;6.90;5.82;;;24.30;99.90;;;;;;4897793;29;20047;-84
2021/06/27 06:30:55;;;;;;;6.90;6.07;;;24.30;99.90;;;;;;4881183;29;20499;-84
2021/06/27 06:33:21;;;;;;;6.05;5.35;;;24.30;99.90;;;;;;4880822;29;20037;-85
2021/06/27 06:35:47;;;;;;;6.03;5.38;;;24.30;99.90;;;;;;4900275;29;20380;-84
2021/06/27 06:38:12;;;;;;;5.95;5.35;;;24.30;99.90;;;;;;4901102;29;20047;-83
2021/06/27 06:40:39;;;;;;;5.45;4.95;;;24.30;99.90;;;;;;4900438;29;20036;-83
2021/06/27 06:43:05;;;;;;;5.80;5.20;;;24.30;99.90;;;;;;4884721;29;20126;-84
2021/06/27 06:45:33;;;;;;;5.88;5.28;;;24.30;99.90;;;;;;4900048;29;20061;-83
2021/06/27 06:47:58;;;;;;;5.85;5.25;;;24.30;99.90;;;;;;4900111;29;20615;-84
2021/06/27 06:50:24;;;;;;;5.72;5.13;;;24.30;99.90;;;;;;4884418;29;20127;-84
2021/06/27 06:52:50;;;;;;;5.80;5.20;;;24.30;99.90;;;;;;4899116;29;20029;-84
2021/06/27 06:55:16;;;;;;;5.65;5.03;;;24.30;99.90;;;;;;4900725;29;20033;-84
2021/06/27 06:57:42;;;;;;;5.28;4.78;;;24.30;99.90;;;;;;4899982;29;20039;-84
2021/06/27 07:00:09;;;;;;;4.82;4.40;;;24.40;99.90;;;;;;4900214;29;20104;-84
2021/06/27 07:02:37;;;;;;;5.30;4.80;;;24.40;99.90;;;;;;4884484;29;20123;-84
2021/06/27 07:05:06;;;;;;;5.15;4.65;;;24.40;99.90;;;;;;4900060;29;20036;-84
2021/06/27 07:07:32;;;;;;;4.97;4.50;;;24.40;99.90;;;;;;4900465;29;20132;-84
2021/06/27 07:09:58;;;;;;;4.53;4.13;;;24.40;99.90;;;;;;4883996;29;20135;-84
2021/06/27 07:12:24;;;;;;;4.80;4.38;;;24.40;99.90;;;;;;4900585;29;20468;-84
2021/06/27 07:14:49;;;;;;;5.00;4.57;;;24.40;99.90;;;;;;4899765;29;20056;-84
2021/06/27 07:17:15;;;;;;;4.57;3.92;;;24.40;99.90;;;;;;4883923;29;20024;-84
2021/06/27 07:19:41;;;;;;;4.40;4.00;;;24.40;99.90;;;;;;4883870;29;20043;-84
2021/06/27 07:22:06;;;;;;;4.40;4.00;;;24.40;99.90;;;;;;4899258;29;20032;-84
2021/06/27 07:24:32;;;;;;;4.60;4.20;;;24.40;99.90;;;;;;4883582;29;20047;-85
2021/06/27 07:26:58;;;;;;;4.68;4.18;;;24.40;99.90;;;;;;4884193;29;20123;-84
2021/06/27 07:29:24;;;;;;;4.63;4.22;;;24.40;99.90;;;;;;4883952;29;20041;-85
2021/06/27 07:31:53;;;;;;;4.30;3.90;;;24.40;99.90;;;;;;4900276;29;20053;-84
2021/06/27 07:34:19;;;;;;;4.10;3.70;;;24.40;99.90;;;;;;4899729;29;20036;-85
2021/06/27 07:36:45;;;;;;;3.75;3.45;;;24.40;99.90;;;;;;4900083;29;20104;-86
2021/06/27 07:39:10;;;;;;;3.70;3.40;;;24.40;99.90;;;;;;4899208;29;20044;-85
2021/06/27 07:41:36;;;;;;;4.22;3.88;;;24.40;99.90;;;;;;4899308;29;20033;-85
2021/06/27 07:44:02;;;;;;;3.92;3.53;;;24.40;99.90;;;;;;4883329;29;20080;-85
2021/06/27 07:46:27;;;;;;;4.13;3.72;;;24.40;99.90;;;;;;4882386;29;20076;-84
2021/06/27 07:48:53;;;;;;;4.22;3.83;;;24.40;99.90;;;;;;4883564;29;20063;-84
2021/06/27 07:51:19;;;;;;;3.60;3.30;;;24.50;99.90;;;;;;4898948;29;20033;-85
2021/06/27 07:53:44;;;;;;;3.53;3.22;;;24.50;99.90;;;;;;4883539;29;20036;-84
2021/06/27 07:56:10;;;;;;;4.13;3.65;;;24.50;99.90;;;;;;4899147;29;20052;-85
2021/06/27 07:58:35;;;;;;;4.53;4.03;;;24.40;99.90;;;;;;4882991;29;20036;-85
2021/06/27 08:01:01;;;;;;;4.25;3.85;;;24.50;99.90;;;;;;4883633;29;20555;-85
2021/06/27 08:03:27;;;;;;;4.15;3.60;;;24.40;99.90;;;;;;4883381;29;20467;-85
2021/06/27 08:05:53;;;;;;;3.63;3.33;;;24.50;99.90;;;;;;4880272;29;20071;-84
2021/06/27 08:08:18;;;;;;;3.55;3.25;;;24.50;99.90;;;;;;4879785;29;20040;-85
2021/06/27 08:10:44;;;;;;;3.53;3.22;;;24.50;99.90;;;;;;4895967;29;20029;-85
2021/06/27 08:13:10;;;;;;;4.05;3.65;;;24.50;99.90;;;;;;4894931;29;20025;-84
2021/06/27 08:15:36;;;;;;;3.38;3.08;;;24.50;99.90;;;;;;4887431;29;20456;-85
2021/06/27 08:18:01;;;;;;;3.35;3.05;;;24.50;99.90;;;;;;4880365;29;20037;-85
2021/06/27 08:20:27;;;;;;;3.38;3.08;;;24.50;99.90;;;;;;4879900;29;20094;-85
2021/06/27 08:22:53;;;;;;;3.20;2.90;;;24.50;99.90;;;;;;4879946;29;20141;-85
2021/06/27 08:25:20;;;;;;;3.40;3.10;;;24.50;99.90;;;;;;4881248;29;20112;-85
2021/06/27 08:27:47;;;;;;;3.20;2.90;;;24.50;99.90;;;;;;4879521;29;20033;-85
2021/06/27 08:30:15;;;;;;;3.70;3.20;;;24.50;99.90;;;;;;4864439;29;20044;-85
2021/06/27 08:32:45;;;;;;;3.15;2.83;;;24.50;99.90;;;;;;4880179;29;20061;-85
2021/06/27 08:35:12;;;;;;;3.20;2.90;;;24.60;99.90;;;;;;4879633;29;20033;-85
2021/06/27 08:37:38;;;;;;;3.20;2.90;;;24.60;99.90;;;;;;4879679;29;20086;-85
2021/06/27 08:40:04;;;;;;;3.28;2.72;;;24.60;99.90;;;;;;4879189;29;20432;-85
2021/06/27 08:42:30;;;;;;;3.15;2.85;;;24.60;99.90;;;;;;4863639;29;20037;-85
2021/06/27 08:44:56;;;;;;;3.08;2.78;;;24.60;99.90;;;;;;4863720;29;20053;-85
2021/06/27 08:47:22;;;;;;;2.47;2.25;;;24.60;99.90;;;;;;4863984;29;20048;-84
2021/06/27 08:49:50;;;;;;;2.80;2.60;;;24.60;99.90;;;;;;4863510;29;20041;-84
2021/06/27 08:52:18;;;;;;;3.20;2.90;;;24.60;99.90;;;;;;4879145;29;20400;-84
2021/06/27 08:54:45;;;;;;;2.60;2.40;;;24.60;99.90;;;;;;4879173;29;20108;-84
2021/06/27 08:57:12;;;;;;;3.25;2.85;;;24.60;99.90;;;;;;4879808;29;20129;-84
2021/06/27 08:59:39;;;;;;;2.90;2.67;;;24.60;99.90;;;;;;4863046;29;20041;-84
2021/06/27 09:02:05;;;;;;;3.35;2.83;;;24.70;99.90;;;;;;4880293;29;20478;-84
2021/06/27 09:04:33;;;;;;;2.70;2.50;;;24.70;99.90;;;;;;4878325;29;20039;-84
2021/06/27 09:07:28;;;;;;;2.60;2.40;;;24.70;99.90;;;;;;4863474;29;20551;-83
2021/06/27 09:09:56;;;;;;;2.72;2.53;;;24.70;99.90;;;;;;4879029;29;20478;-84
2021/06/27 09:12:22;;;;;;;2.65;2.45;;;24.70;99.90;;;;;;4878466;29;20135;-84
2021/06/27 09:14:52;;;;;;;3.00;2.70;;;24.70;99.90;;;;;;4862896;29;20173;-84
2021/06/27 09:17:23;;;;;;;2.50;2.30;;;24.70;99.90;;;;;;4880072;29;20029;-84
2021/06/27 09:19:54;;;;;;;2.47;2.28;;;24.80;99.90;;;;;;4879695;29;20034;-84
2021/06/27 09:22:32;;;;;;;2.55;2.35;;;24.80;99.90;;;;;;4878771;29;20044;-84
2021/06/27 09:25:16;;;;;;;2.90;2.47;;;24.80;99.90;;;;;;4879029;29;20025;-84
2021/06/27 09:27:42;;;;;;;2.83;2.50;;;24.80;99.90;;;;;;4878085;29;20125;-84
2021/06/27 09:30:19;;;;;;;2.70;2.40;;;24.80;99.90;;;;;;4878541;29;20561;-84
2021/06/27 09:33:00;;;;;;;2.85;2.53;;;24.80;99.90;;;;;;4878353;29;20055;-83
2021/06/27 09:35:46;;;;;;;2.05;1.90;;;24.90;99.90;;;;;;4879453;29;20029;-84
2021/06/27 09:38:20;;;;;;;2.75;2.47;;;24.90;99.90;;;;;;4878453;29;20029;-83
2021/06/27 09:40:46;;;;;;;2.33;2.13;;;24.90;99.90;;;;;;4877581;29;20037;-84
2021/06/27 09:43:12;;;;;;;2.33;2.08;;;24.90;99.90;;;;;;4877836;29;20037;-83
2021/06/27 09:45:51;;;;;;;2.40;2.20;;;24.90;99.90;;;;;;4862266;29;20145;-83
2021/06/27 09:48:17;;;;;;;2.40;2.20;;;25.00;99.90;;;;;;4877973;29;20454;-84
2021/06/27 09:50:42;;;;;;;2.42;2.22;;;24.90;99.90;;;;;;4879128;29;20502;-83
2021/06/27 09:53:31;;;;;;;2.50;2.30;;;25.00;99.90;;;;;;4877761;29;20061;-84
2021/06/27 09:55:57;;;;;;;2.58;2.38;;;25.00;99.90;;;;;;4878311;29;20029;-83
2021/06/27 09:58:23;;;;;;;2.67;2.47;;;25.00;99.90;;;;;;4879299;29;20028;-83
2021/06/27 10:00:49;;;;;;;2.67;2.40;;;25.00;99.90;;;;;;4862307;29;20093;-83
2021/06/27 10:03:14;;;;;;;2.67;2.47;;;25.00;99.90;;;;;;4877442;29;20033;-83
2021/06/27 10:05:40;;;;;;;2.97;2.78;;;25.10;99.90;;;;;;4862510;29;20444;-83
2021/06/27 10:08:06;;;;;;;3.17;2.88;;;25.10;99.90;;;;;;4862682;29;20544;-83
2021/06/27 10:10:31;;;;;;;3.05;2.72;;;25.10;99.90;;;;;;4878040;29;20209;-83
2021/06/27 10:12:57;;;;;;;3.00;2.70;;;25.20;99.90;;;;;;4877907;29;20067;-83
2021/06/27 10:15:23;;;;;;;3.00;2.70;;;25.20;99.90;;;;;;4877881;29;20039;-83
2021/06/27 10:17:48;;;;;;;2.78;2.58;;;25.20;99.90;;;;;;4861999;29;20400;-83
2021/06/27 10:20:16;;;;;;;3.17;2.85;;;25.20;99.90;;;;;;4878117;29;20043;-83
2021/06/27 10:22:43;;;;;;;2.95;2.67;;;25.20;99.90;;;;;;4878804;29;20029;-83
2021/06/27 10:25:13;;;;;;;3.40;3.10;;;25.30;99.90;;;;;;4877682;29;20060;-83
2021/06/27 10:27:39;;;;;;;3.00;2.70;;;25.20;99.90;;;;;;4862285;29;20037;-83
2021/06/27 10:30:08;;;;;;;2.88;2.67;;;25.30;99.90;;;;;;4877811;29;20079;-83
2021/06/27 10:32:42;;;;;;;3.33;3.03;;;25.30;99.90;;;;;;4878078;29;20042;-83
2021/06/27 10:35:11;;;;;;;3.63;3.33;;;25.30;99.90;;;;;;4878124;29;20037;-83
2021/06/27 10:37:43;;;;;;;3.58;3.17;;;25.30;99.90;;;;;;4862267;29;20045;-85
2021/06/27 10:40:14;;;;;;;3.03;2.72;;;25.30;99.90;;;;;;4877670;29;20085;-83
2021/06/27 10:42:49;;;;;;;2.90;2.65;;;25.30;99.90;;;;;;4878645;29;20033;-83
2021/06/27 10:45:19;;;;;;;3.45;3.13;;;25.40;99.90;;;;;;4877621;29;20476;-83
2021/06/27 10:47:46;;;;;;;3.35;3.05;;;25.40;99.90;;;;;;4878408;29;20499;-84
2021/06/27 10:50:13;;;;;;;3.20;2.90;;;25.40;99.90;;;;;;4862237;29;20428;-83
2021/06/27 10:52:54;;;;;;;3.55;2.92;;;25.40;99.90;;;;;;4877431;29;20464;-84
2021/06/27 10:55:23;;;;;;;3.50;3.20;;;25.40;99.90;;;;;;4879224;29;20104;-83
2021/06/27 10:58:05;;;;;;;3.53;3.22;;;25.50;99.90;;;;;;4877424;29;20116;-84
2021/06/27 11:01:00;;;;;;;3.47;2.95;;;25.50;99.90;;;;;;4877897;29;20037;-84
2021/06/27 11:03:34;;;;;;;4.03;3.47;;;25.50;99.90;;;;;;4877404;29;20033;-85
2021/06/27 11:06:03;;;;;;;3.83;3.53;;;25.50;99.90;;;;;;4877713;29;20124;-84
2021/06/27 11:08:55;;;;;;;3.20;2.90;;;25.50;99.90;;;;;;4879521;29;20037;-85
2021/06/27 11:11:23;;;;;;;3.60;3.30;;;25.50;99.90;;;;;;4879382;29;20056;-84
2021/06/27 11:14:10;;;;;;;3.85;3.45;;;25.50;99.90;;;;;;4879214;29;20065;-84
2021/06/27 11:17:05;;;;;;;3.75;3.45;;;25.60;99.90;;;;;;4882272;29;20390;-84
2021/06/27 11:19:32;;;;;;;3.83;3.42;;;25.60;99.90;;;;;;4882481;29;20092;-84
2021/06/27 11:22:18;;;;;;;3.15;2.85;;;25.60;99.90;;;;;;4881380;29;20135;-84
2021/06/27 11:24:45;;;;;;;3.67;3.03;;;25.60;99.90;;;;;;4883189;29;20337;-85
2021/06/27 11:27:36;;;;;;;3.10;2.80;;;25.60;99.90;;;;;;4866775;29;20055;-84
2021/06/27 11:30:30;;;;;;;3.10;2.90;;;25.60;99.90;;;;;;4881191;29;20092;-84
2021/06/27 11:33:12;;;;;;;3.17;2.88;;;25.60;99.90;;;;;;4881333;29;20037;-84
2021/06/27 11:35:46;;;;;;;3.60;3.25;;;25.60;99.90;;;;;;4883383;29;20207;-84
2021/06/27 11:38:39;;;;;;;3.40;3.10;;;25.70;99.90;;;;;;4882691;29;20025;-83
2021/06/27 11:41:11;;;;;;;3.67;3.38;;;25.70;99.90;;;;;;4881066;29;20124;-84
2021/06/27 11:43:55;;;;;;;3.17;2.85;;;25.70;99.90;;;;;;4882170;29;20033;-84
2021/06/27 11:46:47;;;;;;;3.70;3.37;;;25.70;99.90;;;;;;4882041;29;20522;-84
2021/06/27 11:49:25;;;;;;;3.30;3.00;;;25.70;99.90;;;;;;4883597;29;20336;-84
2021/06/27 11:51:52;;;;;;;3.33;3.03;;;25.70;99.90;;;;;;4866261;29;20468;-84
2021/06/27 11:54:21;;;;;;;3.30;3.00;;;25.70;99.90;;;;;;4881292;29;20045;-84
2021/06/27 11:57:07;;;;;;;3.42;3.13;;;25.70;99.90;;;;;;4879908;29;20036;-85
2021/06/27 11:59:38;;;;;;;3.58;3.28;;;25.80;99.90;;;;;;4879921;29;20494;-84
2021/06/27 12:02:22;;;;;;;3.35;3.05;;;25.80;99.90;;;;;;4881182;29;20037;-84
2021/06/27 12:04:50;;;;;;;3.40;3.10;;;25.80;99.90;;;;;;4879720;29;20131;-85
2021/06/27 12:07:39;;;;;;;3.53;3.22;;;25.80;99.90;;;;;;4879782;29;20029;-84
2021/06/27 12:10:07;;;;;;;3.75;3.13;;;25.80;99.90;;;;;;4879525;29;20037;-85
2021/06/27 12:12:36;;;;;;;3.72;3.42;;;25.80;99.90;;;;;;4879440;29;20036;-85
2021/06/27 12:15:07;;;;;;;2.80;2.60;;;25.80;99.90;;;;;;4879749;29;20132;-83
2021/06/27 12:17:33;;;;;;;3.20;2.90;;;25.80;99.90;;;;;;4880189;29;20041;-83
2021/06/27 12:19:58;;;;;;;2.88;2.65;;;25.80;99.90;;;;;;4864196;29;20361;-84
2021/06/27 12:22:24;;;;;;;3.20;2.90;;;25.90;99.90;;;;;;4864560;29;20041;-84
2021/06/27 12:24:50;;;;;;;3.60;3.30;;;25.90;99.90;;;;;;4863710;29;20037;-85
2021/06/27 12:27:16;;;;;;;2.92;2.65;;;25.90;99.90;;;;;;4879712;29;20057;-85
2021/06/27 12:29:52;;;;;;;3.20;2.90;;;25.90;99.90;;;;;;4879883;29;20522;-84
2021/06/27 12:32:17;;;;;;;3.10;2.80;;;25.90;99.90;;;;;;4864348;29;20514;-84
2021/06/27 12:34:44;;;;;;;2.95;2.75;;;25.90;99.90;;;;;;4882373;29;20032;-84
2021/06/27 12:37:09;;;;;;;3.15;2.85;;;25.90;99.90;;;;;;4882100;29;20443;-85
2021/06/27 12:39:37;;;;;;;2.70;2.50;;;25.90;99.90;;;;;;4882711;29;20123;-86
2021/06/27 12:42:20;;;;;;;2.80;2.60;;;25.90;99.90;;;;;;4899388;29;20040;-85
2021/06/27 12:44:46;;;;;;;2.80;2.60;;;25.90;99.90;;;;;;4898191;29;20032;-85
2021/06/27 12:47:12;;;;;;;3.13;2.83;;;25.90;99.90;;;;;;4881819;29;20522;-88
2021/06/27 12:49:48;;;;;;;2.63;2.42;;;25.90;99.90;;;;;;4898006;29;20040;-88
2021/06/27 12:52:13;;;;;;;2.60;2.40;;;25.90;99.90;;;;;;4882683;29;20032;-87